Monday, April 23, 2018, 1:38 AM GMT
Back to Local

CYQB, Quebec, Que

Location: , , Canada Lat: 46.8
Local Time: 1:38 AM GMT ( 1:38 GMT) Lon: -71.383
Time Zone: GMT Elev: 229 ft

Show me the last for .
Show Decoded

2018-04-23 01:00 METAR CYQB 230100Z 25005KT 30SM SKC 05/M08 A3034 RMK SLP280 =
2018-04-23 00:00 METAR CYQB 230000Z 24003KT 30SM FEW250 05/M06 A3032 RMK CC1 CC TR SLP272 =
2018-04-22 23:00 METAR CYQB 222300Z 28004KT 250V330 30SM FEW250 10/M09 A3030 RMK CC1 SLP265 =
2018-04-22 22:00 METAR CYQB 222200Z 27007KT 250V320 30SM FEW250 11/M08 A3030 RMK CI1 CI TR SLP264
                 =
2018-04-22 21:00 METAR CYQB 222100Z 25005KT 200V270 30SM FEW250 11/M07 A3030 RMK CC1 CC TR SLP265
                 =
2018-04-22 20:00 METAR CYQB 222000Z 22016G22KT 30SM FEW250 10/M04 A3031 RMK CC1 SLP267 =
2018-04-22 19:00 METAR CYQB 221900Z 22016G23KT 30SM FEW250 10/M03 A3031 RMK CC1 SLP270 =
2018-04-22 18:00 METAR CYQB 221800Z 21017KT 30SM FEW250 09/M05 A3032 RMK CI1 CI TR SLP273 =
2018-04-22 17:00 METAR CYQB 221700Z 22015KT 170V230 30SM FEW250 09/M04 A3034 RMK CI1 CI TR SLP277
                 =
2018-04-22 16:00 METAR CYQB 221600Z 26004KT 30SM SKC 08/M08 A3034 RMK SLP279 =
2018-04-22 15:00 METAR CYQB 221500Z 34003KT 30SM SKC 07/M09 A3035 RMK SLP282 =
2018-04-22 14:00 METAR CYQB 221400Z 29005KT 230V360 30SM SKC 06/M08 A3036 RMK SLP286 =
2018-04-22 13:00 METAR CYQB 221300Z 33003KT 260V020 30SM SKC 05/M08 A3036 RMK SLP285 =
2018-04-22 12:00 METAR CYQB 221200Z 34005KT 290V050 30SM SKC 02/M08 A3035 RMK SLP283 =
2018-04-22 11:00 METAR CYQB 221100Z 32006KT 270V360 30SM FEW070 01/M08 A3033 RMK AC1 AC TR SLP276
                 =
2018-04-22 10:00 METAR CYQB 221000Z VRB03KT 30SM FEW100 FEW240 M00/M08 A3033 RMK AC1CI1 AC TR
                 SLP274 =
2018-04-22 09:00 METAR CYQB 220900Z 31004KT 250V360 15SM FEW085 M00/M09 A3031 RMK AC2 SLP268 =
2018-04-22 08:00 METAR CYQB 220800Z VRB02KT 15SM SKC 00/M09 A3029 RMK SLP263 =
2018-04-22 07:00 METAR CYQB 220700Z 36004KT 310V040 15SM SKC 02/M09 A3029 RMK SLP262 =
2018-04-22 06:00 METAR CYQB 220600Z VRB03KT 15SM SKC 00/M08 A3028 RMK SLP259 =
2018-04-22 05:00 METAR CYQB 220500Z 29004KT 15SM FEW040 FEW230 00/M08 A3028 RMK SC1CI1 SC TR CI
                 TR SLP259 =
2018-04-22 04:01 METAR CYQB 220401Z 29003KT 15SM SKC M00/M07 A3028 RMK SLP258 =
2018-04-22 03:00 METAR CYQB 220300Z 30004KT 250V310 15SM FEW085 02/M07 A3027 RMK AC2 SLP256 =
2018-04-22 02:47 METAR CYQB 220247Z 28004KT 15SM FEW080 SCT230 02/M07 A3027 RMK AC2CI1 SLP256 =
2018-04-22 02:00 METAR CYQB 220200Z 31003KT 290V030 15SM FEW075 SCT220 03/M07 A3026 RMK AC2CI2
                 SLP253 =

Support USWX by starting your Amazon purchase here.